createdAt,value
2022-12-11T00:00:24.982Z,94371.20
2022-12-11T00:02:51.799Z,94369.60
2022-12-11T00:05:18.681Z,94367.40
2022-12-11T00:07:45.370Z,94373.60
2022-12-11T00:10:12.050Z,94376.80
2022-12-11T00:12:38.586Z,94378.00
2022-12-11T00:15:05.935Z,94375.00
2022-12-11T00:17:32.491Z,94374.80
2022-12-11T00:19:59.086Z,94379.60
2022-12-11T00:22:25.649Z,94374.20
2022-12-11T00:24:52.261Z,94374.60
2022-12-11T00:27:18.847Z,94378.80
2022-12-11T00:29:45.580Z,94375.00
2022-12-11T00:32:12.223Z,94375.60
2022-12-11T00:34:39.132Z,94374.80
2022-12-11T00:37:06.950Z,94375.60
2022-12-11T00:39:33.719Z,94372.60
2022-12-11T00:42:00.357Z,94375.20
2022-12-11T00:44:26.935Z,94375.20
2022-12-11T00:46:53.651Z,94375.60
2022-12-11T00:49:20.286Z,94372.20
2022-12-11T00:51:46.912Z,94369.60
2022-12-11T00:54:13.513Z,94371.00
2022-12-11T00:56:40.087Z,94373.20
2022-12-11T00:59:06.758Z,94371.60
2022-12-11T01:01:33.489Z,94366.60
2022-12-11T01:04:00.469Z,94371.60
2022-12-11T01:06:28.527Z,94376.40
2022-12-11T01:09:16.096Z,94377.80
2022-12-11T01:11:43.446Z,94384.80
2022-12-11T01:14:11.750Z,94388.20
2022-12-11T01:16:38.730Z,94390.40
2022-12-11T01:19:05.686Z,94390.60
2022-12-11T01:21:32.455Z,94391.20
2022-12-11T01:23:59.169Z,94393.80
2022-12-11T01:26:26.000Z,94399.20
2022-12-11T01:28:52.834Z,94410.00
2022-12-11T01:31:22.301Z,94407.00
2022-12-11T01:33:49.321Z,94413.40
2022-12-11T01:36:19.953Z,94419.00
2022-12-11T01:38:48.652Z,94420.60
2022-12-11T01:41:18.093Z,94424.20
2022-12-11T01:44:28.919Z,94427.00
2022-12-11T01:46:55.913Z,94425.80
2022-12-11T01:49:26.399Z,94418.20
2022-12-11T01:52:22.087Z,94422.20
2022-12-11T01:54:51.447Z,94423.20
2022-12-11T01:57:18.050Z,94424.20
2022-12-11T01:59:47.263Z,94422.40
2022-12-11T02:02:30.055Z,94425.20
2022-12-11T02:04:57.005Z,94421.40
2022-12-11T02:07:24.123Z,94420.40
2022-12-11T02:09:50.980Z,94420.20
2022-12-11T02:12:34.550Z,94419.20
2022-12-11T02:15:11.409Z,94415.80
2022-12-11T02:17:45.338Z,94410.20
2022-12-11T02:20:30.647Z,94407.40
2022-12-11T02:23:12.735Z,94408.20
2022-12-11T02:26:25.635Z,94406.00
2022-12-11T02:29:07.543Z,94407.80
2022-12-11T02:32:16.602Z,94410.80
2022-12-11T02:34:55.467Z,94412.60
2022-12-11T02:37:25.137Z,94410.40
2022-12-11T02:39:55.105Z,94411.60
2022-12-11T02:42:23.527Z,94401.40
2022-12-11T02:44:51.766Z,94408.20
2022-12-11T02:47:21.187Z,94410.00
2022-12-11T02:49:50.471Z,94406.80
2022-12-11T02:52:22.160Z,94407.60
2022-12-11T02:54:51.620Z,94410.60
2022-12-11T02:57:28.993Z,94414.80
2022-12-11T02:59:55.709Z,94414.60
2022-12-11T03:02:22.684Z,94419.80
2022-12-11T03:04:49.447Z,94423.40
2022-12-11T03:07:26.331Z,94422.20
2022-12-11T03:09:54.217Z,94425.20
2022-12-11T03:12:34.561Z,94422.20
2022-12-11T03:15:06.290Z,94422.40
2022-12-11T03:17:50.709Z,94418.80
2022-12-11T03:20:33.590Z,94420.80
2022-12-11T03:23:41.145Z,94424.20
2022-12-11T03:26:15.299Z,94428.80
2022-12-11T03:28:59.177Z,94427.20
2022-12-11T03:31:39.759Z,94427.80
2022-12-11T03:34:25.979Z,94430.80
2022-12-11T03:36:56.589Z,94432.00
2022-12-11T03:39:33.293Z,94434.60
2022-12-11T03:42:03.635Z,94434.80
2022-12-11T03:44:33.830Z,94439.20
2022-12-11T03:47:04.682Z,94439.40
2022-12-11T03:49:37.276Z,94441.40
2022-12-11T03:52:06.577Z,94437.20
2022-12-11T03:54:35.395Z,94433.60
2022-12-11T03:57:05.054Z,94436.60
2022-12-11T03:59:31.677Z,94439.20
2022-12-11T04:01:58.598Z,94437.60
2022-12-11T04:04:25.791Z,94443.40
2022-12-11T04:06:52.559Z,94436.80
2022-12-11T04:09:19.376Z,94439.20
2022-12-11T04:11:46.125Z,94439.00
2022-12-11T04:14:33.726Z,94432.60
2022-12-11T04:17:00.955Z,94430.20
2022-12-11T04:19:46.441Z,94429.80
2022-12-11T04:22:15.547Z,94432.00
2022-12-11T04:24:42.597Z,94430.20
2022-12-11T04:27:09.396Z,94434.40
2022-12-11T04:29:35.971Z,94434.00
2022-12-11T04:32:02.448Z,94437.80
2022-12-11T04:34:29.407Z,94439.20
2022-12-11T04:36:55.939Z,94430.20
2022-12-11T04:39:22.492Z,94429.60
2022-12-11T04:41:49.206Z,94426.80
2022-12-11T04:44:15.859Z,94424.80
2022-12-11T04:46:42.655Z,94421.00
2022-12-11T04:49:10.121Z,94427.40
2022-12-11T04:51:36.779Z,94431.00
2022-12-11T04:54:03.458Z,94432.80
2022-12-11T04:56:30.034Z,94438.60
2022-12-11T04:58:56.961Z,94437.20
2022-12-11T05:01:23.914Z,94429.20
2022-12-11T05:03:51.086Z,94423.80
2022-12-11T05:06:17.903Z,94414.20
2022-12-11T05:08:45.567Z,94413.60
2022-12-11T05:11:15.821Z,94416.60
2022-12-11T05:13:44.199Z,94417.40
2022-12-11T05:16:15.770Z,94415.20
2022-12-11T05:18:43.005Z,94418.40
2022-12-11T05:21:12.919Z,94417.60
2022-12-11T05:23:39.850Z,94418.20
2022-12-11T05:26:13.475Z,94414.40
2022-12-11T05:28:42.040Z,94416.20
2022-12-11T05:31:17.625Z,94408.40
2022-12-11T05:33:45.651Z,94409.20
2022-12-11T05:36:18.258Z,94405.80
2022-12-11T05:38:45.491Z,94415.80
2022-12-11T05:41:16.194Z,94412.20
2022-12-11T05:43:42.927Z,94408.20
2022-12-11T05:46:15.054Z,94408.40
2022-12-11T05:48:43.960Z,94409.40
2022-12-11T05:51:11.724Z,94411.40
2022-12-11T05:53:40.588Z,94406.40
2022-12-11T05:56:12.661Z,94406.40
2022-12-11T05:58:40.392Z,94408.20
2022-12-11T06:01:11.177Z,94404.20
2022-12-11T06:03:38.072Z,94407.00
2022-12-11T06:06:07.212Z,94405.40
2022-12-11T06:08:35.044Z,94402.00
2022-12-11T06:11:02.141Z,94401.20
2022-12-11T06:13:28.922Z,94398.80
2022-12-11T06:15:55.727Z,94395.60
2022-12-11T06:18:22.375Z,94394.20
2022-12-11T06:20:48.995Z,94393.60
2022-12-11T06:23:15.511Z,94395.40
2022-12-11T06:25:42.174Z,94397.00
2022-12-11T06:28:08.824Z,94395.80
2022-12-11T06:30:38.758Z,94391.80
2022-12-11T06:33:06.880Z,94393.20
2022-12-11T06:35:38.719Z,94397.20
2022-12-11T06:38:08.667Z,94402.00
2022-12-11T06:40:35.216Z,94398.20
2022-12-11T06:43:01.754Z,94399.60
2022-12-11T06:45:28.448Z,94398.20
2022-12-11T06:47:55.862Z,94401.20
2022-12-11T06:50:22.458Z,94404.80
2022-12-11T06:52:49.015Z,94402.00
2022-12-11T06:55:15.667Z,94402.20
2022-12-11T06:57:42.344Z,94409.00
2022-12-11T07:00:10.059Z,94403.80
2022-12-11T07:02:36.682Z,94404.20
2022-12-11T07:05:03.766Z,94396.00
2022-12-11T07:07:30.469Z,94401.80
2022-12-11T07:09:57.094Z,94403.00
2022-12-11T07:12:23.917Z,94406.00
2022-12-11T07:14:50.439Z,94407.00
2022-12-11T07:17:17.026Z,94410.00
2022-12-11T07:19:43.786Z,94414.40
2022-12-11T07:22:10.333Z,94423.60
2022-12-11T07:24:36.947Z,94426.00
2022-12-11T07:27:04.729Z,94423.00
2022-12-11T07:29:31.421Z,94421.40
2022-12-11T07:31:58.187Z,94430.80
2022-12-11T07:34:24.963Z,94429.60
2022-12-11T07:36:51.663Z,94430.40
2022-12-11T07:39:18.368Z,94430.20
2022-12-11T07:41:46.003Z,94435.20
2022-12-11T07:44:12.719Z,94438.40
2022-12-11T07:46:39.526Z,94433.40
2022-12-11T07:49:07.063Z,94428.40
2022-12-11T07:51:37.622Z,94430.60
2022-12-11T07:54:08.629Z,94425.40
2022-12-11T07:56:35.263Z,94423.20
2022-12-11T07:59:05.913Z,94424.40
2022-12-11T08:01:36.468Z,94421.80
2022-12-11T08:04:06.887Z,94421.20
2022-12-11T08:06:37.875Z,94428.60
2022-12-11T08:09:17.470Z,94433.00
2022-12-11T08:11:51.155Z,94430.20
2022-12-11T08:14:18.556Z,94426.80
2022-12-11T08:16:45.168Z,94435.20
2022-12-11T08:19:13.281Z,94428.60
2022-12-11T08:21:40.532Z,94431.40
2022-12-11T08:24:09.037Z,94429.80
2022-12-11T08:26:36.553Z,94427.20
2022-12-11T08:29:03.441Z,94424.40
2022-12-11T08:31:30.396Z,94425.60
2022-12-11T08:33:57.400Z,94431.20
2022-12-11T08:36:25.102Z,94439.20
2022-12-11T08:38:52.511Z,94447.60
2022-12-11T08:41:26.836Z,94445.40
2022-12-11T08:43:57.662Z,94451.20
2022-12-11T08:46:32.419Z,94448.20
2022-12-11T08:49:00.232Z,94450.60
2022-12-11T08:51:29.575Z,94455.20
2022-12-11T08:53:59.888Z,94455.00
2022-12-11T08:56:28.194Z,94452.40
2022-12-11T08:58:54.780Z,94455.40
2022-12-11T09:01:25.421Z,94453.40
2022-12-11T09:03:54.957Z,94448.00
2022-12-11T09:06:24.558Z,94448.20
2022-12-11T09:08:53.539Z,94443.80
2022-12-11T09:11:29.051Z,94445.00
2022-12-11T09:13:55.981Z,94445.80
2022-12-11T09:16:26.754Z,94445.40
2022-12-11T09:18:57.333Z,94444.80
2022-12-11T09:21:28.600Z,94442.80
2022-12-11T09:24:01.171Z,94444.00
2022-12-11T09:26:30.237Z,94447.20
2022-12-11T09:28:57.922Z,94440.40
2022-12-11T09:31:30.205Z,94434.20
2022-12-11T09:34:04.143Z,94435.20
2022-12-11T09:36:31.194Z,94437.80
2022-12-11T09:39:03.845Z,94431.80
2022-12-11T09:41:49.964Z,94433.60
2022-12-11T09:44:26.933Z,94434.20
2022-12-11T09:46:53.872Z,94438.20
2022-12-11T09:49:36.364Z,94428.40
2022-12-11T09:52:29.595Z,94426.00
2022-12-11T09:55:02.494Z,94426.80
2022-12-11T09:57:57.244Z,94423.20
2022-12-11T10:01:14.260Z,94423.60
2022-12-11T10:04:19.759Z,94411.80
2022-12-11T10:07:07.336Z,94417.20
2022-12-11T10:10:12.808Z,94415.20
2022-12-11T10:13:25.309Z,94415.00
2022-12-11T10:16:04.732Z,94402.60
2022-12-11T10:18:33.955Z,94400.80
2022-12-11T10:21:02.619Z,94391.60
2022-12-11T10:23:44.907Z,94394.60
2022-12-11T10:26:20.688Z,94390.60
2022-12-11T10:28:47.661Z,94387.20
2022-12-11T10:31:21.521Z,94388.40
2022-12-11T10:34:04.678Z,94387.80
2022-12-11T10:36:39.129Z,94383.60
2022-12-11T10:39:19.930Z,94386.40
2022-12-11T10:41:49.970Z,94381.80
2022-12-11T10:44:27.899Z,94385.40
2022-12-11T10:47:13.963Z,94380.80
2022-12-11T10:50:02.339Z,94374.40
2022-12-11T10:52:42.716Z,94379.20
2022-12-11T10:55:29.503Z,94380.00
2022-12-11T10:58:03.873Z,94375.60
2022-12-11T11:00:40.605Z,94372.40
2022-12-11T11:03:27.244Z,94364.60
2022-12-11T11:06:15.229Z,94365.00
2022-12-11T11:08:47.336Z,94357.80
2022-12-11T11:11:34.276Z,94356.00
2022-12-11T11:14:15.089Z,94352.40
2022-12-11T11:16:45.185Z,94352.20
2022-12-11T11:19:33.541Z,94348.00
2022-12-11T11:22:16.128Z,94343.20
2022-12-11T11:24:52.291Z,94340.40
2022-12-11T11:28:02.528Z,94338.20
2022-12-11T11:30:39.971Z,94330.80
2022-12-11T11:33:20.362Z,94323.20
2022-12-11T11:35:58.319Z,94322.40
2022-12-11T11:38:31.398Z,94323.60
2022-12-11T11:41:19.790Z,94323.00
2022-12-11T11:43:54.979Z,94319.00
2022-12-11T11:46:30.873Z,94315.20
2022-12-11T11:49:15.728Z,94314.60
2022-12-11T11:51:55.993Z,94312.20
2022-12-11T11:54:41.076Z,94308.40
2022-12-11T11:57:42.479Z,94311.80
2022-12-11T12:00:33.624Z,94311.40
2022-12-11T12:03:10.276Z,94313.20
2022-12-11T12:05:48.342Z,94313.60
2022-12-11T12:08:52.849Z,94315.60
2022-12-11T12:11:49.535Z,94314.60
2022-12-11T12:14:51.775Z,94307.20
2022-12-11T12:17:39.660Z,94307.00
2022-12-11T12:20:10.487Z,94305.60
2022-12-11T12:22:52.093Z,94299.40
2022-12-11T12:25:32.164Z,94298.60
2022-12-11T12:28:23.826Z,94295.40
2022-12-11T12:31:24.680Z,94297.80
2022-12-11T12:34:42.297Z,94305.40
2022-12-11T12:37:15.046Z,94306.40
2022-12-11T12:40:08.957Z,94304.00
2022-12-11T12:42:51.138Z,94300.00
2022-12-11T12:45:33.896Z,94295.60
2022-12-11T12:48:02.106Z,94295.00
2022-12-11T12:50:44.949Z,94299.00
2022-12-11T12:53:20.913Z,94299.80
2022-12-11T12:55:48.624Z,94301.60
2022-12-11T12:58:34.783Z,94297.20
2022-12-11T13:01:17.344Z,94295.60
2022-12-11T13:03:55.438Z,94294.80
2022-12-11T13:06:41.552Z,94295.00
2022-12-11T13:09:28.332Z,94291.20
2022-12-11T13:11:59.843Z,94294.20
2022-12-11T13:14:32.425Z,94292.40
2022-12-11T13:17:27.259Z,94295.00
2022-12-11T13:20:20.441Z,94298.40
2022-12-11T13:23:07.037Z,94295.60
2022-12-11T13:25:58.413Z,94295.40
2022-12-11T13:28:28.175Z,94296.80
2022-12-11T13:31:16.017Z,94296.80
2022-12-11T13:33:55.930Z,94302.80
2022-12-11T13:36:34.623Z,94302.20
2022-12-11T13:39:08.226Z,94298.20
2022-12-11T13:41:38.133Z,94306.40
2022-12-11T13:44:07.162Z,94303.20
2022-12-11T13:46:37.353Z,94302.00
2022-12-11T13:49:07.453Z,94306.40
2022-12-11T13:51:37.010Z,94303.20
2022-12-11T13:54:06.587Z,94304.80
2022-12-11T13:56:33.827Z,94305.80
2022-12-11T13:59:00.472Z,94307.40
2022-12-11T14:01:33.857Z,94305.20
2022-12-11T14:04:11.036Z,94303.00
2022-12-11T14:06:39.755Z,94304.60
2022-12-11T14:09:08.211Z,94300.00
2022-12-11T14:11:38.459Z,94307.60
2022-12-11T14:14:14.890Z,94303.60
2022-12-11T14:16:42.426Z,94306.80
2022-12-11T14:19:11.068Z,94304.60
2022-12-11T14:21:37.826Z,94300.40
2022-12-11T14:24:09.103Z,94307.20
2022-12-11T14:26:39.448Z,94311.60
2022-12-11T14:29:07.110Z,94309.00
2022-12-11T14:31:40.789Z,94316.80
2022-12-11T14:34:18.578Z,94310.20
2022-12-11T14:36:48.103Z,94311.80
2022-12-11T14:39:21.119Z,94314.20
2022-12-11T14:42:02.963Z,94310.00
2022-12-11T14:44:44.800Z,94315.40
2022-12-11T14:47:23.330Z,94320.60
2022-12-11T14:50:18.178Z,94317.40
2022-12-11T14:53:02.810Z,94317.80
2022-12-11T14:55:32.889Z,94321.20
2022-12-11T14:58:05.030Z,94320.40
2022-12-11T15:00:36.034Z,94324.20
2022-12-11T15:03:17.723Z,94326.60
2022-12-11T15:05:54.723Z,94322.60
2022-12-11T15:08:34.189Z,94329.00
2022-12-11T15:11:11.557Z,94324.00
2022-12-11T15:13:56.878Z,94321.60
2022-12-11T15:16:27.199Z,94321.40
2022-12-11T15:18:55.668Z,94322.80
2022-12-11T15:21:32.723Z,94321.00
2022-12-11T15:24:03.161Z,94323.80
2022-12-11T15:26:36.753Z,94325.40
2022-12-11T15:29:25.216Z,94326.40
2022-12-11T15:32:10.038Z,94322.80
2022-12-11T15:34:58.976Z,94322.40
2022-12-11T15:37:29.827Z,94323.20
2022-12-11T15:39:59.621Z,94323.60
2022-12-11T15:42:29.696Z,94328.80
2022-12-11T15:44:56.755Z,94330.60
2022-12-11T15:47:27.990Z,94331.00
2022-12-11T15:50:02.211Z,94330.80
2022-12-11T15:52:29.113Z,94331.80
2022-12-11T15:54:55.695Z,94325.20
2022-12-11T15:57:24.677Z,94334.20
2022-12-11T15:59:53.889Z,94331.20
2022-12-11T16:02:20.956Z,94333.20
2022-12-11T16:04:47.802Z,94335.60
2022-12-11T16:07:22.498Z,94340.80
2022-12-11T16:09:49.954Z,94342.80
2022-12-11T16:12:16.988Z,94343.20
2022-12-11T16:14:45.499Z,94342.60
2022-12-11T16:17:15.260Z,94348.20
2022-12-11T16:19:44.005Z,94352.40
2022-12-11T16:22:15.426Z,94350.00
2022-12-11T16:24:42.730Z,94352.40
2022-12-11T16:27:10.070Z,94351.80
2022-12-11T16:29:39.259Z,94350.20
2022-12-11T16:32:11.067Z,94351.00
2022-12-11T16:34:39.113Z,94356.20
2022-12-11T16:37:08.190Z,94356.00
2022-12-11T16:39:37.393Z,94360.40
2022-12-11T16:42:07.139Z,94358.40
2022-12-11T16:44:33.826Z,94354.20
2022-12-11T16:47:00.465Z,94361.20
2022-12-11T16:49:27.034Z,94361.20
2022-12-11T16:51:53.594Z,94364.00
2022-12-11T16:54:20.234Z,94366.00
2022-12-11T16:56:46.820Z,94364.60
2022-12-11T16:59:13.428Z,94369.40
2022-12-11T17:01:40.767Z,94367.40
2022-12-11T17:04:07.772Z,94368.20
2022-12-11T17:06:34.424Z,94368.20
2022-12-11T17:09:01.205Z,94369.20
2022-12-11T17:11:27.806Z,94368.80
2022-12-11T17:13:57.088Z,94364.80
2022-12-11T17:16:26.274Z,94367.00
2022-12-11T17:18:53.527Z,94366.40
2022-12-11T17:21:22.244Z,94362.60
2022-12-11T17:23:50.952Z,94366.80
2022-12-11T17:26:18.410Z,94368.00
2022-12-11T17:28:45.405Z,94362.80
2022-12-11T17:31:17.269Z,94363.60
2022-12-11T17:33:46.458Z,94363.00
2022-12-11T17:36:19.534Z,94361.20
2022-12-11T17:38:46.379Z,94363.40
2022-12-11T17:41:20.512Z,94363.40
2022-12-11T17:43:53.546Z,94368.40
2022-12-11T17:46:21.977Z,94367.40
2022-12-11T17:48:48.911Z,94365.20
2022-12-11T17:51:21.801Z,94367.40
2022-12-11T17:53:48.466Z,94366.20
2022-12-11T17:56:15.428Z,94373.80
2022-12-11T17:58:42.250Z,94377.20
2022-12-11T18:01:12.375Z,94374.20
2022-12-11T18:03:40.843Z,94375.40
2022-12-11T18:06:13.126Z,94380.00
2022-12-11T18:08:40.144Z,94377.20
2022-12-11T18:11:15.125Z,94376.60
2022-12-11T18:13:43.639Z,94377.00
2022-12-11T18:16:27.809Z,94381.00
2022-12-11T18:18:54.777Z,94380.60
2022-12-11T18:21:25.949Z,94381.60
2022-12-11T18:23:53.838Z,94380.60
2022-12-11T18:26:21.175Z,94377.80
2022-12-11T18:28:49.244Z,94378.00
2022-12-11T18:31:16.499Z,94378.60
2022-12-11T18:33:44.306Z,94379.60
2022-12-11T18:36:13.567Z,94379.60
2022-12-11T18:38:42.028Z,94378.60
2022-12-11T18:41:12.224Z,94383.40
2022-12-11T18:43:41.352Z,94385.80
2022-12-11T18:46:10.994Z,94383.60
2022-12-11T18:48:38.282Z,94383.40
2022-12-11T18:51:12.479Z,94382.40
2022-12-11T18:53:40.211Z,94384.20
2022-12-11T18:56:11.000Z,94388.00
2022-12-11T18:58:39.625Z,94385.20
2022-12-11T19:01:20.133Z,94390.20
2022-12-11T19:03:47.366Z,94392.20
2022-12-11T19:06:18.562Z,94391.40
2022-12-11T19:08:45.973Z,94387.20
2022-12-11T19:11:20.313Z,94391.00
2022-12-11T19:13:47.803Z,94396.20
2022-12-11T19:16:21.204Z,94395.80
2022-12-11T19:18:49.464Z,94395.80
2022-12-11T19:21:27.196Z,94398.20
2022-12-11T19:23:54.704Z,94398.00
2022-12-11T19:26:24.143Z,94397.20
2022-12-11T19:28:52.888Z,94397.60
2022-12-11T19:31:23.283Z,94392.80
2022-12-11T19:33:50.369Z,94397.40
2022-12-11T19:36:21.445Z,94402.20
2022-12-11T19:38:48.663Z,94406.20
2022-12-11T19:41:19.950Z,94402.60
2022-12-11T19:43:47.163Z,94403.60
2022-12-11T19:46:15.316Z,94404.40
2022-12-11T19:48:43.050Z,94406.40
2022-12-11T19:51:16.409Z,94400.80
2022-12-11T19:53:44.677Z,94398.00
2022-12-11T19:56:13.109Z,94401.60
2022-12-11T19:58:41.768Z,94402.20
2022-12-11T20:01:09.891Z,94404.40
2022-12-11T20:03:38.047Z,94402.80
2022-12-11T20:06:08.259Z,94408.80
2022-12-11T20:08:44.858Z,94408.60
2022-12-11T20:11:17.569Z,94404.20
2022-12-11T20:13:46.498Z,94407.00
2022-12-11T20:16:15.833Z,94405.40
2022-12-11T20:18:42.916Z,94396.80
2022-12-11T20:21:16.419Z,94401.80
2022-12-11T20:23:44.164Z,94400.20
2022-12-11T20:26:17.800Z,94399.60
2022-12-11T20:28:48.042Z,94399.80
2022-12-11T20:31:20.492Z,94398.40
2022-12-11T20:33:49.483Z,94400.20
2022-12-11T20:36:19.282Z,94398.20
2022-12-11T20:38:46.143Z,94394.40
2022-12-11T20:41:16.924Z,94396.40
2022-12-11T20:43:44.592Z,94398.80
2022-12-11T20:46:17.243Z,94403.60
2022-12-11T20:48:45.503Z,94400.60
2022-12-11T20:51:18.590Z,94401.20
2022-12-11T20:53:50.435Z,94404.00
2022-12-11T20:56:19.395Z,94402.20
2022-12-11T20:58:46.475Z,94399.80
2022-12-11T21:01:19.508Z,94401.20
2022-12-11T21:03:46.484Z,94401.40
2022-12-11T21:06:31.208Z,94402.60
2022-12-11T21:09:07.759Z,94398.60
2022-12-11T21:11:34.916Z,94398.20
2022-12-11T21:14:01.465Z,94394.20
2022-12-11T21:16:28.604Z,94394.20
2022-12-11T21:18:57.378Z,94398.20
2022-12-11T21:21:25.769Z,94392.20
2022-12-11T21:23:52.603Z,94395.60
2022-12-11T21:26:19.491Z,94398.40
2022-12-11T21:28:46.161Z,94393.60
2022-12-11T21:31:17.368Z,94395.60
2022-12-11T21:33:44.158Z,94393.80
2022-12-11T21:36:13.556Z,94387.60
2022-12-11T21:38:42.054Z,94390.40
2022-12-11T21:41:13.501Z,94391.00
2022-12-11T21:44:00.418Z,94391.60
2022-12-11T21:46:29.198Z,94392.40
2022-12-11T21:48:55.930Z,94392.00
2022-12-11T21:51:35.904Z,94396.60
2022-12-11T21:54:06.155Z,94395.00
2022-12-11T21:56:33.067Z,94392.60
2022-12-11T21:59:01.704Z,94388.60
2022-12-11T22:01:34.361Z,94391.60
2022-12-11T22:04:01.512Z,94384.40
2022-12-11T22:06:28.173Z,94386.20
2022-12-11T22:08:54.836Z,94381.00
2022-12-11T22:11:27.468Z,94388.60
2022-12-11T22:13:55.085Z,94389.40
2022-12-11T22:16:21.885Z,94387.00
2022-12-11T22:18:48.764Z,94384.80
2022-12-11T22:21:16.536Z,94386.80
2022-12-11T22:23:44.662Z,94387.60
2022-12-11T22:26:18.676Z,94390.80
2022-12-11T22:28:45.324Z,94386.20
2022-12-11T22:31:14.392Z,94386.20
2022-12-11T22:33:41.317Z,94395.80
2022-12-11T22:36:10.337Z,94396.40
2022-12-11T22:38:37.172Z,94396.20
2022-12-11T22:41:24.608Z,94391.20
2022-12-11T22:43:52.567Z,94391.80
2022-12-11T22:46:22.625Z,94392.40
2022-12-11T22:48:49.630Z,94394.00
2022-12-11T22:51:16.850Z,94396.00
2022-12-11T22:53:43.749Z,94394.80
2022-12-11T22:56:13.103Z,94401.60
2022-12-11T22:58:40.122Z,94402.00
2022-12-11T23:01:14.618Z,94401.20
2022-12-11T23:03:41.523Z,94402.00
2022-12-11T23:06:12.445Z,94400.60
2022-12-11T23:08:40.971Z,94398.20
2022-12-11T23:11:24.930Z,94400.00
2022-12-11T23:13:53.069Z,94402.40
2022-12-11T23:16:22.070Z,94400.80
2022-12-11T23:18:48.789Z,94400.80
2022-12-11T23:21:15.475Z,94400.60
2022-12-11T23:23:42.907Z,94400.20
2022-12-11T23:26:13.082Z,94396.80
2022-12-11T23:28:41.405Z,94395.60
2022-12-11T23:31:08.778Z,94397.40
2022-12-11T23:33:35.361Z,94398.60
2022-12-11T23:36:03.022Z,94399.00
2022-12-11T23:38:29.599Z,94398.40
2022-12-11T23:40:59.774Z,94397.40
2022-12-11T23:43:26.781Z,94398.80
2022-12-11T23:45:53.657Z,94399.20
2022-12-11T23:48:20.456Z,94398.20
2022-12-11T23:50:48.194Z,94398.00
2022-12-11T23:53:15.290Z,94403.80
2022-12-11T23:55:45.607Z,94398.20
2022-12-11T23:58:12.337Z,94401.40
